Flagstaff (FLG/KFLG)

Map

Destinations

Information

Location
Flagstaff, AZ
Local Time
13:34 / 1:34 pm
GMT Time
20:34 / 8:34 pm
Gates
1
No FAA reported delays
METAR KFLG 231957Z 07009G15KT 10SM CLR 22/M07 A3050 RMK AO2 SLP264 T02221072
TAF KFLG 231735Z 2318/2418 05013G20KT P6SM SKC FM240100 05011KT P6SM SKC FM241400 06014G22KT P6SM SKC